createdAt,value
2023-01-03T00:00:00.730Z,66.4
2023-01-03T00:01:05.079Z,66.5
2023-01-03T00:02:00.485Z,66.6
2023-01-03T00:03:00.572Z,66.6
2023-01-03T00:04:00.635Z,66.5
2023-01-03T00:05:00.575Z,66.5
2023-01-03T00:06:00.426Z,66.6
2023-01-03T00:07:00.655Z,66.6
2023-01-03T00:08:00.536Z,66.7
2023-01-03T00:09:01.351Z,66.8
2023-01-03T00:10:03.602Z,66.7
2023-01-03T00:11:00.440Z,66.7
2023-01-03T00:12:00.519Z,66.8
2023-01-03T00:13:00.456Z,66.8
2023-01-03T00:14:00.433Z,66.9
2023-01-03T00:15:00.905Z,66.9
2023-01-03T00:16:00.456Z,66.9
2023-01-03T00:17:01.432Z,67.0
2023-01-03T00:18:00.740Z,67.1
2023-01-03T00:19:04.130Z,67.3
2023-01-03T00:20:00.495Z,67.5
2023-01-03T00:21:03.707Z,67.6
2023-01-03T00:22:00.437Z,67.9
2023-01-03T00:23:00.657Z,67.8
2023-01-03T00:24:00.514Z,67.7
2023-01-03T00:25:00.477Z,67.7
2023-01-03T00:26:07.723Z,67.6
2023-01-03T00:27:00.587Z,67.6
2023-01-03T00:28:00.586Z,67.6
2023-01-03T00:29:00.715Z,67.5
2023-01-03T00:30:00.593Z,67.4
2023-01-03T00:31:04.541Z,67.2
2023-01-03T00:32:00.656Z,67.1
2023-01-03T00:33:00.448Z,67.0
2023-01-03T00:34:00.505Z,67.0
2023-01-03T00:35:05.140Z,67.0
2023-01-03T00:36:01.484Z,67.0
2023-01-03T00:37:00.496Z,67.0
2023-01-03T00:38:00.529Z,67.2
2023-01-03T00:39:00.515Z,67.2
2023-01-03T00:40:00.631Z,67.2
2023-01-03T00:41:04.802Z,67.4
2023-01-03T00:42:01.282Z,67.5
2023-01-03T00:43:00.483Z,67.7
2023-01-03T00:44:00.612Z,67.6
2023-01-03T00:45:00.458Z,67.6
2023-01-03T00:46:00.690Z,67.7
2023-01-03T00:47:00.621Z,67.8
2023-01-03T00:48:00.437Z,67.8
2023-01-03T00:49:00.883Z,68.0
2023-01-03T00:50:00.467Z,68.0
2023-01-03T00:51:10.304Z,68.1
2023-01-03T00:52:00.661Z,68.1
2023-01-03T00:53:00.443Z,68.2
2023-01-03T00:54:01.121Z,68.2
2023-01-03T00:55:00.440Z,68.3
2023-01-03T00:56:05.263Z,68.2
2023-01-03T00:57:00.509Z,68.3
2023-01-03T00:58:00.488Z,68.2
2023-01-03T00:59:00.991Z,68.1
2023-01-03T01:00:00.486Z,68.1
2023-01-03T01:01:04.790Z,68.1
2023-01-03T01:02:00.794Z,68.1
2023-01-03T01:03:00.720Z,68.1
2023-01-03T01:04:10.326Z,68.0
2023-01-03T01:05:00.452Z,67.9
2023-01-03T01:06:08.899Z,67.8
2023-01-03T01:07:02.578Z,67.8
2023-01-03T01:08:00.458Z,67.8
2023-01-03T01:09:01.871Z,67.8
2023-01-03T01:10:00.498Z,67.7
2023-01-03T01:11:00.439Z,67.8
2023-01-03T01:12:00.878Z,67.7
2023-01-03T01:13:00.589Z,67.7
2023-01-03T01:14:00.559Z,67.6
2023-01-03T01:15:00.543Z,67.6
2023-01-03T01:16:01.706Z,67.6
2023-01-03T01:17:03.169Z,67.5
2023-01-03T01:18:00.483Z,67.5
2023-01-03T01:19:00.447Z,67.5
2023-01-03T01:20:00.468Z,67.5
2023-01-03T01:21:03.588Z,67.5
2023-01-03T01:22:00.600Z,67.4
2023-01-03T01:23:00.453Z,67.3
2023-01-03T01:24:00.584Z,67.3
2023-01-03T01:25:00.685Z,67.3
2023-01-03T01:26:01.091Z,67.4
2023-01-03T01:27:00.675Z,67.3
2023-01-03T01:28:00.496Z,67.2
2023-01-03T01:29:00.425Z,67.2
2023-01-03T01:30:00.455Z,67.2
2023-01-03T01:31:01.380Z,67.2
2023-01-03T01:32:00.642Z,67.1
2023-01-03T01:33:00.535Z,67.1
2023-01-03T01:34:00.485Z,67.0
2023-01-03T01:35:00.593Z,67.1
2023-01-03T01:36:08.785Z,67.1
2023-01-03T01:37:00.462Z,67.2
2023-01-03T01:38:00.428Z,67.3
2023-01-03T01:39:02.035Z,67.3
2023-01-03T01:40:00.416Z,67.3
2023-01-03T01:41:00.465Z,67.2
2023-01-03T01:42:01.834Z,67.3
2023-01-03T01:43:09.920Z,67.1
2023-01-03T01:44:00.440Z,67.2
2023-01-03T01:45:01.899Z,67.1
2023-01-03T01:46:05.198Z,67.2
2023-01-03T01:47:01.505Z,67.3
2023-01-03T01:48:04.937Z,67.4
2023-01-03T01:49:02.373Z,67.5
2023-01-03T01:50:06.487Z,67.5
2023-01-03T01:51:01.586Z,67.7
2023-01-03T01:52:00.542Z,67.6
2023-01-03T01:53:10.302Z,67.7
2023-01-03T01:54:01.482Z,67.9
2023-01-03T01:55:01.930Z,68.1
2023-01-03T01:56:10.097Z,68.1
2023-01-03T01:57:00.534Z,68.1
2023-01-03T01:58:00.983Z,68.0
2023-01-03T01:59:00.582Z,68.0
2023-01-03T02:00:00.570Z,68.3
2023-01-03T02:01:02.693Z,68.1
2023-01-03T02:02:00.700Z,68.1
2023-01-03T02:03:00.665Z,68.0
2023-01-03T02:04:05.097Z,68.1
2023-01-03T02:05:02.703Z,68.1
2023-01-03T02:06:01.259Z,68.2
2023-01-03T02:07:01.519Z,68.3
2023-01-03T02:08:00.533Z,68.4
2023-01-03T02:09:00.500Z,68.4
2023-01-03T02:10:00.781Z,68.5
2023-01-03T02:11:08.316Z,68.5
2023-01-03T02:12:10.220Z,68.5
2023-01-03T02:13:06.678Z,68.4
2023-01-03T02:14:01.469Z,68.4
2023-01-03T02:15:00.404Z,68.5
2023-01-03T02:16:05.881Z,68.5
2023-01-03T02:17:03.796Z,68.5
2023-01-03T02:18:07.938Z,68.5
2023-01-03T02:19:07.849Z,68.5
2023-01-03T02:20:00.425Z,68.5
2023-01-03T02:21:09.795Z,68.5
2023-01-03T02:22:10.282Z,68.4
2023-01-03T02:32:06.990Z,68.0
2023-01-03T02:33:01.531Z,67.9
2023-01-03T02:34:05.792Z,67.9
2023-01-03T02:35:00.393Z,67.9
2023-01-03T02:36:00.473Z,67.9
2023-01-03T02:37:06.561Z,67.8
2023-01-03T02:38:09.050Z,67.8
2023-01-03T02:39:10.307Z,67.8
2023-01-03T02:40:09.733Z,67.8
2023-01-03T02:41:06.177Z,67.7
2023-01-03T02:42:09.356Z,67.6
2023-01-03T02:43:00.664Z,67.5
2023-01-03T02:44:05.572Z,67.4
2023-01-03T02:45:01.473Z,67.3
2023-01-03T02:46:10.349Z,67.2
2023-01-03T02:47:05.052Z,67.1
2023-01-03T02:48:02.431Z,67.1
2023-01-03T02:49:10.378Z,67.0
2023-01-03T02:50:02.221Z,67.0
2023-01-03T02:51:04.266Z,66.9
2023-01-03T02:52:03.071Z,66.7
2023-01-03T02:53:02.555Z,66.6
2023-01-03T02:54:02.589Z,66.5
2023-01-03T02:55:03.430Z,66.5
2023-01-03T02:56:03.759Z,66.4
2023-01-03T02:57:03.383Z,66.3
2023-01-03T02:58:04.322Z,66.3
2023-01-03T02:59:04.672Z,66.3
2023-01-03T03:00:05.029Z,66.3
2023-01-03T03:01:01.634Z,66.3
2023-01-03T03:02:02.266Z,66.2
2023-01-03T03:03:03.941Z,66.2
2023-01-03T03:04:01.057Z,66.3
2023-01-03T03:05:02.225Z,66.5
2023-01-03T03:06:06.182Z,66.5
2023-01-03T03:07:07.095Z,66.6
2023-01-03T03:08:00.414Z,66.7
2023-01-03T03:09:00.470Z,66.8
2023-01-03T03:10:00.556Z,66.9
2023-01-03T03:11:00.472Z,67.0
2023-01-03T03:12:00.853Z,67.2
2023-01-03T03:13:03.660Z,67.4
2023-01-03T03:14:07.240Z,67.5
2023-01-03T03:15:02.730Z,67.6
2023-01-03T03:16:04.733Z,67.8
2023-01-03T03:17:03.317Z,67.7
2023-01-03T03:18:05.387Z,67.7
2023-01-03T03:19:01.032Z,67.7
2023-01-03T03:20:06.022Z,67.7
2023-01-03T03:21:01.509Z,67.7
2023-01-03T03:22:02.805Z,67.8
2023-01-03T03:32:00.997Z,67.9
2023-01-03T03:33:01.526Z,67.9
2023-01-03T03:34:10.360Z,67.8
2023-01-03T03:35:02.331Z,68.1
2023-01-03T03:36:04.643Z,68.0
2023-01-03T03:37:00.463Z,68.2
2023-01-03T03:38:02.815Z,68.4
2023-01-03T03:39:00.752Z,68.2
2023-01-03T03:40:00.512Z,68.3
2023-01-03T03:41:10.268Z,68.2
2023-01-03T03:42:10.900Z,68.3
2023-01-03T03:43:10.397Z,68.3
2023-01-03T03:44:06.108Z,68.3
2023-01-03T03:45:02.944Z,68.4
2023-01-03T03:46:03.797Z,68.3
2023-01-03T03:47:06.030Z,68.3
2023-01-03T03:48:00.419Z,68.3
2023-01-03T03:49:05.395Z,68.2
2023-01-03T03:50:05.052Z,68.2
2023-01-03T03:51:03.261Z,68.3
2023-01-03T03:52:01.682Z,68.1
2023-01-03T03:53:03.867Z,68.0
2023-01-03T03:54:01.828Z,68.0
2023-01-03T03:55:05.198Z,68.0
2023-01-03T03:56:00.450Z,68.0
2023-01-03T03:57:08.121Z,68.1
2023-01-03T03:58:03.296Z,68.2
2023-01-03T03:59:03.808Z,68.2
2023-01-03T04:00:03.323Z,68.3
2023-01-03T04:01:01.722Z,68.4
2023-01-03T04:02:03.040Z,68.5
2023-01-03T04:03:01.591Z,68.6
2023-01-03T04:04:04.554Z,68.8
2023-01-03T04:05:04.716Z,68.9
2023-01-03T04:06:05.343Z,69.1
2023-01-03T04:07:00.597Z,69.2
2023-01-03T04:08:00.730Z,69.4
2023-01-03T04:09:00.653Z,69.6
2023-01-03T04:10:00.731Z,69.5
2023-01-03T04:11:00.955Z,69.4
2023-01-03T04:12:01.012Z,69.5
2023-01-03T04:13:00.496Z,69.5
2023-01-03T04:14:00.573Z,69.6
2023-01-03T04:15:00.692Z,69.7
2023-01-03T04:16:00.775Z,69.9
2023-01-03T04:17:00.610Z,69.9
2023-01-03T04:18:00.479Z,69.9
2023-01-03T04:19:00.597Z,69.9
2023-01-03T04:20:00.475Z,69.8
2023-01-03T04:21:00.514Z,69.9
2023-01-03T04:22:00.715Z,69.9
2023-01-03T04:23:00.575Z,69.8
2023-01-03T04:24:00.522Z,69.8
2023-01-03T04:25:00.647Z,70.0
2023-01-03T04:26:00.731Z,70.1
2023-01-03T04:27:00.509Z,70.1
2023-01-03T04:28:00.484Z,70.1
2023-01-03T04:29:00.611Z,70.3
2023-01-03T04:30:00.528Z,70.3
2023-01-03T04:31:00.626Z,70.4
2023-01-03T04:32:00.582Z,70.6
2023-01-03T04:33:00.517Z,70.5
2023-01-03T04:34:01.163Z,70.4
2023-01-03T04:35:00.512Z,70.3
2023-01-03T04:36:00.573Z,70.4
2023-01-03T04:37:00.801Z,70.2
2023-01-03T04:38:00.694Z,70.1
2023-01-03T04:39:00.544Z,70.1
2023-01-03T04:40:00.676Z,70.3
2023-01-03T04:41:04.560Z,70.1
2023-01-03T04:42:00.699Z,70.1
2023-01-03T04:43:00.555Z,70.1
2023-01-03T04:44:00.564Z,70.2
2023-01-03T04:45:00.539Z,70.0
2023-01-03T04:46:00.609Z,70.3
2023-01-03T04:47:00.509Z,70.2
2023-01-03T04:48:00.935Z,70.2
2023-01-03T04:49:01.285Z,70.2
2023-01-03T04:50:00.548Z,70.4
2023-01-03T04:51:00.475Z,70.6
2023-01-03T04:52:00.498Z,70.3
2023-01-03T04:53:00.693Z,70.5
2023-01-03T04:54:01.248Z,70.4
2023-01-03T04:55:00.582Z,70.5
2023-01-03T04:56:00.603Z,70.6
2023-01-03T04:57:00.547Z,70.4
2023-01-03T04:58:00.561Z,70.5
2023-01-03T04:59:00.600Z,70.5
2023-01-03T05:00:00.554Z,70.4
2023-01-03T05:01:01.571Z,70.3
2023-01-03T05:02:00.755Z,70.1
2023-01-03T05:03:00.460Z,69.9
2023-01-03T05:04:01.006Z,70.0
2023-01-03T05:05:00.624Z,69.8
2023-01-03T05:06:02.477Z,69.9
2023-01-03T05:07:00.467Z,69.9
2023-01-03T05:08:02.799Z,70.0
2023-01-03T05:09:00.548Z,69.9
2023-01-03T05:10:00.590Z,69.9
2023-01-03T05:11:00.882Z,69.9
2023-01-03T05:12:00.760Z,69.9
2023-01-03T05:13:00.446Z,69.9
2023-01-03T05:14:00.457Z,69.9
2023-01-03T05:15:00.585Z,69.9
2023-01-03T05:16:04.730Z,70.0
2023-01-03T05:17:00.536Z,70.1
2023-01-03T05:18:00.621Z,70.1
2023-01-03T05:19:00.498Z,70.2
2023-01-03T05:20:00.467Z,70.1
2023-01-03T05:21:05.241Z,70.1
2023-01-03T05:22:00.515Z,70.1
2023-01-03T05:23:00.477Z,70.1
2023-01-03T05:24:00.532Z,70.0
2023-01-03T05:25:00.519Z,70.0
2023-01-03T05:26:03.363Z,69.9
2023-01-03T05:27:01.962Z,69.9
2023-01-03T05:28:00.785Z,70.0
2023-01-03T05:29:00.518Z,70.1
2023-01-03T05:30:00.632Z,69.9
2023-01-03T05:31:00.479Z,69.7
2023-01-03T05:32:00.623Z,69.5
2023-01-03T05:33:00.502Z,69.3
2023-01-03T05:34:00.523Z,69.4
2023-01-03T05:35:00.549Z,69.1
2023-01-03T05:36:00.583Z,68.9
2023-01-03T05:37:00.738Z,68.9
2023-01-03T05:38:00.528Z,68.8
2023-01-03T05:39:00.531Z,68.8
2023-01-03T05:40:00.532Z,68.8
2023-01-03T05:41:00.543Z,68.6
2023-01-03T05:42:00.507Z,68.6
2023-01-03T05:43:00.554Z,68.5
2023-01-03T05:44:00.546Z,68.5
2023-01-03T05:45:00.544Z,68.6
2023-01-03T05:46:00.666Z,68.5
2023-01-03T05:47:01.712Z,68.6
2023-01-03T05:48:00.726Z,68.5
2023-01-03T05:49:01.148Z,68.6
2023-01-03T05:50:00.495Z,68.7
2023-01-03T05:51:00.496Z,68.7
2023-01-03T05:52:00.575Z,68.6
2023-01-03T05:53:00.494Z,68.6
2023-01-03T05:54:00.497Z,68.7
2023-01-03T05:55:00.493Z,68.6
2023-01-03T05:56:04.720Z,68.5
2023-01-03T05:57:00.613Z,68.5
2023-01-03T05:58:00.547Z,68.5
2023-01-03T05:59:00.796Z,68.4
2023-01-03T06:00:00.570Z,68.3
2023-01-03T06:01:06.758Z,68.4
2023-01-03T06:02:00.735Z,68.3
2023-01-03T06:03:00.741Z,68.2
2023-01-03T06:04:00.623Z,68.1
2023-01-03T06:05:00.627Z,68.2
2023-01-03T06:06:02.341Z,68.2
2023-01-03T06:07:00.490Z,68.2
2023-01-03T06:08:00.935Z,68.3
2023-01-03T06:09:00.565Z,68.3
2023-01-03T06:10:00.754Z,68.4
2023-01-03T06:11:04.244Z,68.4
2023-01-03T06:12:00.530Z,68.3
2023-01-03T06:13:00.611Z,68.4
2023-01-03T06:14:00.558Z,68.3
2023-01-03T06:15:00.494Z,68.2
2023-01-03T06:16:02.595Z,68.3
2023-01-03T06:17:00.517Z,68.2
2023-01-03T06:18:00.511Z,68.2
2023-01-03T06:19:01.241Z,68.2
2023-01-03T06:20:00.460Z,68.2
2023-01-03T06:21:01.847Z,68.1
2023-01-03T06:22:03.290Z,68.0
2023-01-03T06:23:00.503Z,67.9
2023-01-03T06:24:00.414Z,67.9
2023-01-03T06:25:00.427Z,67.9
2023-01-03T06:26:02.002Z,68.0
2023-01-03T06:27:00.438Z,68.0
2023-01-03T06:28:00.535Z,68.0
2023-01-03T06:29:00.721Z,68.0
2023-01-03T06:30:00.465Z,68.1
2023-01-03T06:31:00.520Z,68.2
2023-01-03T06:32:06.858Z,68.1
2023-01-03T06:33:00.467Z,68.1
2023-01-03T06:34:00.556Z,68.1
2023-01-03T06:35:00.421Z,68.0
2023-01-03T06:36:01.246Z,68.0
2023-01-03T06:37:00.455Z,68.1
2023-01-03T06:38:00.428Z,68.1
2023-01-03T06:39:00.523Z,68.1
2023-01-03T06:40:00.515Z,68.1
2023-01-03T06:41:00.529Z,68.2
2023-01-03T06:42:01.099Z,68.1
2023-01-03T06:43:00.766Z,68.1
2023-01-03T06:44:00.491Z,68.0
2023-01-03T06:45:00.473Z,68.0
2023-01-03T06:46:00.825Z,68.0
2023-01-03T06:47:00.447Z,67.9
2023-01-03T06:48:04.433Z,68.0
2023-01-03T06:49:00.626Z,68.0
2023-01-03T06:50:00.493Z,68.0
2023-01-03T06:51:00.451Z,67.9
2023-01-03T06:52:01.606Z,67.9
2023-01-03T06:53:00.503Z,67.8
2023-01-03T06:54:00.710Z,67.7
2023-01-03T06:55:00.596Z,67.7
2023-01-03T06:56:00.860Z,67.8
2023-01-03T06:57:00.439Z,67.7
2023-01-03T06:58:01.165Z,67.7
2023-01-03T06:59:00.826Z,67.7
2023-01-03T07:00:00.512Z,67.6
2023-01-03T07:01:01.990Z,67.7
2023-01-03T07:02:00.634Z,67.7
2023-01-03T07:03:05.526Z,67.6
2023-01-03T07:04:01.191Z,67.5
2023-01-03T07:05:00.693Z,67.6
2023-01-03T07:06:00.457Z,67.6
2023-01-03T07:07:00.482Z,67.6
2023-01-03T07:08:00.458Z,67.6
2023-01-03T07:09:00.640Z,67.6
2023-01-03T07:10:00.446Z,67.6
2023-01-03T07:11:00.484Z,67.6
2023-01-03T07:12:00.461Z,67.6
2023-01-03T07:13:00.476Z,67.7
2023-01-03T07:14:00.554Z,67.6
2023-01-03T07:15:00.580Z,67.6
2023-01-03T07:16:00.707Z,67.6
2023-01-03T07:17:00.401Z,67.7
2023-01-03T07:18:00.489Z,67.7
2023-01-03T07:19:00.968Z,67.6
2023-01-03T07:20:00.531Z,67.6
2023-01-03T07:21:00.503Z,67.6
2023-01-03T07:22:00.472Z,67.5
2023-01-03T07:23:00.444Z,67.5
2023-01-03T07:24:01.327Z,67.4
2023-01-03T07:25:00.504Z,67.4
2023-01-03T07:26:00.466Z,67.3
2023-01-03T07:27:00.722Z,67.2
2023-01-03T07:28:05.758Z,67.1
2023-01-03T07:29:01.502Z,67.1
2023-01-03T07:30:00.437Z,67.1
2023-01-03T07:31:01.497Z,67.1
2023-01-03T07:32:00.473Z,67.0
2023-01-03T07:33:00.480Z,66.9
2023-01-03T07:34:00.755Z,66.8
2023-01-03T07:35:00.476Z,66.8
2023-01-03T07:36:07.598Z,66.9
2023-01-03T07:37:00.458Z,66.9
2023-01-03T07:38:00.950Z,66.9
2023-01-03T07:39:00.444Z,66.8
2023-01-03T07:40:00.465Z,66.7
2023-01-03T07:41:01.174Z,66.6
2023-01-03T07:42:00.452Z,66.7
2023-01-03T07:43:00.470Z,66.4
2023-01-03T07:44:00.474Z,66.3
2023-01-03T07:45:00.714Z,66.1
2023-01-03T07:46:03.930Z,66.1
2023-01-03T07:47:00.434Z,66.1
2023-01-03T07:48:00.430Z,66.2
2023-01-03T07:49:00.643Z,66.2
2023-01-03T07:50:00.491Z,66.0
2023-01-03T07:51:00.483Z,66.0
2023-01-03T07:52:00.461Z,66.1
2023-01-03T07:53:00.476Z,65.9
2023-01-03T07:54:00.449Z,65.8
2023-01-03T07:55:00.441Z,65.8
2023-01-03T07:56:06.385Z,65.8
2023-01-03T07:57:00.443Z,65.7
2023-01-03T07:58:00.462Z,65.7
2023-01-03T07:59:00.461Z,65.6
2023-01-03T08:00:00.778Z,65.6
2023-01-03T08:01:04.647Z,65.5
2023-01-03T08:02:00.609Z,65.6
2023-01-03T08:03:00.565Z,65.3
2023-01-03T08:04:00.457Z,65.2
2023-01-03T08:05:00.545Z,65.2
2023-01-03T08:06:02.338Z,65.1
2023-01-03T08:07:00.484Z,65.0
2023-01-03T08:08:00.830Z,65.1
2023-01-03T08:09:05.946Z,65.0
2023-01-03T08:10:00.442Z,65.0
2023-01-03T08:11:01.134Z,64.8
2023-01-03T08:12:00.616Z,64.8
2023-01-03T08:13:00.449Z,64.7
2023-01-03T08:14:00.478Z,64.6
2023-01-03T08:15:00.468Z,64.7
2023-01-03T08:16:00.535Z,64.6
2023-01-03T08:17:00.504Z,64.7
2023-01-03T08:18:00.567Z,64.8
2023-01-03T08:19:00.410Z,64.8
2023-01-03T08:20:00.486Z,64.8
2023-01-03T08:21:00.445Z,64.6
2023-01-03T08:22:00.566Z,64.5
2023-01-03T08:23:00.447Z,64.3
2023-01-03T08:24:00.474Z,64.3
2023-01-03T08:25:00.456Z,64.3
2023-01-03T08:26:02.485Z,64.3
2023-01-03T08:27:00.457Z,64.4
2023-01-03T08:28:00.817Z,64.4
2023-01-03T08:29:00.454Z,64.2
2023-01-03T08:30:00.615Z,64.3
2023-01-03T08:31:04.154Z,64.3
2023-01-03T08:32:00.859Z,64.3
2023-01-03T08:33:01.575Z,64.3
2023-01-03T08:34:01.570Z,64.4
2023-01-03T08:35:00.673Z,64.5
2023-01-03T08:36:02.334Z,64.6
2023-01-03T08:37:02.599Z,64.6
2023-01-03T08:38:01.650Z,64.7
2023-01-03T08:39:04.191Z,64.7
2023-01-03T08:40:01.492Z,64.7
2023-01-03T08:41:01.676Z,64.7
2023-01-03T08:42:03.243Z,64.8
2023-01-03T08:43:01.773Z,64.7
2023-01-03T08:44:01.697Z,64.6
2023-01-03T08:45:02.429Z,64.5
2023-01-03T08:46:02.138Z,64.5
2023-01-03T08:47:02.107Z,64.5
2023-01-03T08:48:00.552Z,64.6
2023-01-03T08:49:00.631Z,64.6
2023-01-03T08:50:00.884Z,64.6
2023-01-03T08:51:01.011Z,64.4
2023-01-03T08:52:00.467Z,64.5
2023-01-03T08:53:00.520Z,64.6
2023-01-03T08:54:00.477Z,64.4
2023-01-03T08:55:00.664Z,64.4
2023-01-03T08:56:00.484Z,64.4
2023-01-03T08:57:00.492Z,64.4
2023-01-03T08:58:00.463Z,64.3
2023-01-03T08:59:00.739Z,64.4
2023-01-03T09:00:00.432Z,64.4
2023-01-03T09:01:01.617Z,64.4
2023-01-03T09:02:01.296Z,64.4
2023-01-03T09:03:00.704Z,64.4
2023-01-03T09:04:00.554Z,64.3
2023-01-03T09:05:00.555Z,64.5
2023-01-03T09:06:01.193Z,64.5
2023-01-03T09:07:00.536Z,64.5
2023-01-03T09:08:00.428Z,64.5
2023-01-03T09:09:04.325Z,64.4
2023-01-03T09:10:00.434Z,64.4
2023-01-03T09:11:08.399Z,64.4
2023-01-03T09:12:00.452Z,64.4
2023-01-03T09:13:00.903Z,64.3
2023-01-03T09:14:00.479Z,64.3
2023-01-03T09:15:00.569Z,64.2
2023-01-03T09:16:01.350Z,64.3
2023-01-03T09:17:00.656Z,64.2
2023-01-03T09:18:00.462Z,64.1
2023-01-03T09:19:00.485Z,64.0
2023-01-03T09:20:00.423Z,63.9
2023-01-03T09:21:01.140Z,63.6
2023-01-03T09:22:00.778Z,63.3
2023-01-03T09:23:00.516Z,63.1
2023-01-03T09:24:01.084Z,62.9
2023-01-03T09:25:00.933Z,62.8
2023-01-03T09:26:01.379Z,62.5
2023-01-03T09:27:00.438Z,62.5
2023-01-03T09:28:00.632Z,62.1
2023-01-03T09:29:00.461Z,62.2
2023-01-03T09:30:00.936Z,62.3
2023-01-03T09:31:00.547Z,62.1
2023-01-03T09:32:00.511Z,61.9
2023-01-03T09:33:00.487Z,62.1
2023-01-03T09:34:00.673Z,61.6
2023-01-03T09:35:00.454Z,61.8
2023-01-03T09:36:00.699Z,62.0
2023-01-03T09:37:00.586Z,61.8
2023-01-03T09:38:00.443Z,61.8
2023-01-03T09:39:00.681Z,61.7
2023-01-03T09:40:00.519Z,61.7
2023-01-03T09:41:01.756Z,61.6
2023-01-03T09:42:00.565Z,61.0
2023-01-03T09:43:02.200Z,60.7
2023-01-03T09:44:03.068Z,60.4
2023-01-03T09:45:00.814Z,60.7
2023-01-03T09:46:00.525Z,60.5
2023-01-03T09:47:01.371Z,60.8
2023-01-03T09:48:02.162Z,60.3
2023-01-03T09:49:01.171Z,60.3
2023-01-03T09:50:35.286Z,60.5
2023-01-03T09:51:21.246Z,60.3
2023-01-03T09:52:00.581Z,60.4
2023-01-03T09:53:01.483Z,60.1
2023-01-03T09:54:00.527Z,59.9
2023-01-03T09:55:00.500Z,59.8
2023-01-03T09:56:00.508Z,59.6
2023-01-03T09:57:01.196Z,59.6
2023-01-03T09:58:00.427Z,59.0
2023-01-03T09:59:08.825Z,59.2
2023-01-03T10:00:00.811Z,58.8
2023-01-03T10:01:10.447Z,58.5
2023-01-03T10:02:10.574Z,58.4
2023-01-03T10:03:10.349Z,57.7
2023-01-03T10:04:01.476Z,58.2
2023-01-03T10:05:01.510Z,58.3
2023-01-03T10:06:10.325Z,57.7
2023-01-03T10:07:10.473Z,57.0
2023-01-03T10:08:01.470Z,57.8
2023-01-03T10:09:07.870Z,57.0
2023-01-03T10:10:13.886Z,57.3
2023-01-03T10:11:01.472Z,56.9
2023-01-03T10:12:01.653Z,56.3
2023-01-03T10:13:03.918Z,56.1
2023-01-03T10:14:00.444Z,55.2
2023-01-03T10:15:06.568Z,55.9
2023-01-03T10:16:00.486Z,55.7
2023-01-03T10:17:10.288Z,54.6
2023-01-03T10:18:00.441Z,55.4
2023-01-03T10:19:03.872Z,54.5
2023-01-03T10:20:10.309Z,54.6
2023-01-03T10:21:00.412Z,54.4
2023-01-03T10:22:07.721Z,54.2
2023-01-03T10:23:04.383Z,54.7
2023-01-03T10:24:00.679Z,53.8
2023-01-03T10:25:00.486Z,53.7
2023-01-03T10:26:00.703Z,54.1
2023-01-03T10:27:03.888Z,53.4
2023-01-03T10:28:03.447Z,53.2
2023-01-03T10:29:00.603Z,52.2
2023-01-03T10:30:02.278Z,52.1
2023-01-03T10:31:10.308Z,52.4
2023-01-03T10:32:10.372Z,51.8
2023-01-03T10:33:00.411Z,51.0
2023-01-03T10:34:00.625Z,51.5
2023-01-03T10:35:10.350Z,49.7
2023-01-03T10:36:00.472Z,50.0
2023-01-03T10:37:01.192Z,50.5
2023-01-03T10:38:00.847Z,50.3
2023-01-03T10:39:03.042Z,48.8
2023-01-03T10:40:01.455Z,49.5
2023-01-03T10:41:02.109Z,48.7
2023-01-03T10:42:04.022Z,48.2
2023-01-03T10:43:08.844Z,48.6
2023-01-03T10:44:01.808Z,46.9
2023-01-03T10:45:02.178Z,47.7
2023-01-03T10:46:02.768Z,47.4
2023-01-03T10:47:09.215Z,47.1
2023-01-03T10:48:00.799Z,46.8
2023-01-03T10:49:27.384Z,45.3
2023-01-03T10:50:01.817Z,45.9
2023-01-03T10:51:02.885Z,44.2
2023-01-03T10:52:00.484Z,44.6
2023-01-03T10:53:04.702Z,43.4
2023-01-03T10:54:09.008Z,43.1
2023-01-03T10:55:02.638Z,42.5
2023-01-03T10:56:01.570Z,42.2
2023-01-03T10:57:00.522Z,41.6
2023-01-03T10:58:02.192Z,41.1
2023-01-03T10:59:10.327Z,42.7
2023-01-03T11:00:00.513Z,41.3
2023-01-03T11:01:10.437Z,39.4
2023-01-03T11:02:10.584Z,40.3
2023-01-03T11:03:10.043Z,39.9
2023-01-03T11:04:10.300Z,39.3
2023-01-03T11:05:09.346Z,41.2
2023-01-03T11:06:00.442Z,38.9
2023-01-03T11:07:02.599Z,38.6
2023-01-03T11:08:02.596Z,39.5
2023-01-03T11:09:03.164Z,39.2
2023-01-03T11:10:00.654Z,39.6
2023-01-03T11:11:00.496Z,39.5
2023-01-03T11:12:03.160Z,39.5
2023-01-03T11:13:00.465Z,39.5
2023-01-03T11:14:09.311Z,40.6
2023-01-03T11:15:03.518Z,40.7
2023-01-03T11:16:02.026Z,41.6
2023-01-03T11:17:01.964Z,41.7
2023-01-03T11:18:02.926Z,41.9
2023-01-03T11:19:03.251Z,41.9
2023-01-03T11:20:00.529Z,41.7
2023-01-03T11:21:10.272Z,42.1
2023-01-03T11:22:04.446Z,42.9
2023-01-03T11:23:02.389Z,42.7
2023-01-03T11:24:10.290Z,41.9
2023-01-03T11:25:00.682Z,42.4
2023-01-03T11:26:00.620Z,42.3
2023-01-03T11:27:10.292Z,42.2
2023-01-03T11:28:03.751Z,43.2
2023-01-03T11:29:10.274Z,42.8
2023-01-03T11:30:00.455Z,42.3
2023-01-03T11:31:05.892Z,43.2
2023-01-03T11:32:10.355Z,43.1
2023-01-03T11:33:10.182Z,43.1
2023-01-03T11:34:10.280Z,42.4
2023-01-03T11:35:25.274Z,42.9
2023-01-03T11:36:10.343Z,43.3
2023-01-03T11:37:09.404Z,42.5
2023-01-03T11:38:10.306Z,42.4
2023-01-03T11:39:14.964Z,42.9
2023-01-03T11:40:10.343Z,43.0
2023-01-03T11:41:10.287Z,41.9
2023-01-03T11:42:10.308Z,42.1
2023-01-03T11:43:03.803Z,41.6
2023-01-03T11:44:10.270Z,41.1
2023-01-03T11:45:07.862Z,41.1
2023-01-03T11:46:08.662Z,40.8
2023-01-03T11:47:10.306Z,40.6
2023-01-03T11:48:10.315Z,40.7
2023-01-03T11:49:07.245Z,40.8
2023-01-03T11:50:10.333Z,40.9
2023-01-03T11:51:10.299Z,40.7
2023-01-03T11:52:01.438Z,41.6
2023-01-03T11:53:00.409Z,40.0
2023-01-03T11:54:00.430Z,39.4
2023-01-03T11:55:10.296Z,39.0
2023-01-03T11:56:00.521Z,39.9
2023-01-03T11:57:05.465Z,38.7
2023-01-03T11:58:10.338Z,39.2
2023-01-03T11:59:03.880Z,39.0
2023-01-03T12:00:10.301Z,39.2
2023-01-03T12:01:03.853Z,40.0
2023-01-03T12:02:03.950Z,39.5
2023-01-03T12:03:07.848Z,39.9
2023-01-03T12:04:07.888Z,39.8
2023-01-03T12:05:01.509Z,39.9
2023-01-03T12:06:01.416Z,38.8
2023-01-03T12:07:45.690Z,38.3
2023-01-03T12:08:07.523Z,38.2
2023-01-03T12:09:01.478Z,38.6
2023-01-03T12:10:10.319Z,38.8
2023-01-03T12:11:05.076Z,38.7
2023-01-03T12:12:10.305Z,38.7
2023-01-03T12:13:07.860Z,38.9
2023-01-03T12:14:10.302Z,38.8
2023-01-03T12:15:10.302Z,39.3
2023-01-03T12:16:02.266Z,39.7
2023-01-03T12:17:00.429Z,39.7
2023-01-03T12:18:10.313Z,40.0
2023-01-03T12:19:00.440Z,39.5
2023-01-03T12:20:02.114Z,39.1
2023-01-03T12:21:05.424Z,39.1
2023-01-03T12:22:04.755Z,39.1
2023-01-03T12:23:03.931Z,38.8
2023-01-03T12:24:04.306Z,38.7
2023-01-03T12:25:07.337Z,39.4
2023-01-03T12:26:01.657Z,39.6
2023-01-03T12:27:04.723Z,39.8
2023-01-03T12:28:01.515Z,40.0
2023-01-03T12:29:05.509Z,39.9
2023-01-03T12:30:10.285Z,39.6
2023-01-03T12:31:03.635Z,40.3
2023-01-03T12:32:05.451Z,39.5
2023-01-03T12:33:10.281Z,39.5
2023-01-03T12:34:10.300Z,39.3
2023-01-03T12:35:10.311Z,39.2
2023-01-03T12:36:01.455Z,39.4
2023-01-03T12:37:10.331Z,39.1
2023-01-03T12:38:03.078Z,39.0
2023-01-03T12:39:10.266Z,39.6
2023-01-03T12:40:07.523Z,39.9
2023-01-03T12:41:10.306Z,39.7
2023-01-03T12:42:03.799Z,39.3
2023-01-03T12:43:10.320Z,39.4
2023-01-03T12:44:07.052Z,39.3
2023-01-03T12:45:10.301Z,38.8
2023-01-03T12:46:12.148Z,38.8
2023-01-03T12:47:01.509Z,39.0
2023-01-03T12:48:06.512Z,38.8
2023-01-03T12:49:10.415Z,38.9
2023-01-03T12:50:10.317Z,39.1
2023-01-03T12:51:00.492Z,38.9
2023-01-03T12:52:00.442Z,38.8
2023-01-03T12:53:10.276Z,38.5
2023-01-03T12:54:01.542Z,38.8
2023-01-03T12:55:03.939Z,39.5
2023-01-03T12:56:00.435Z,39.8
2023-01-03T12:57:10.320Z,40.2
2023-01-03T12:58:03.729Z,39.7
2023-01-03T12:59:10.371Z,40.1
2023-01-03T13:00:00.476Z,40.4
2023-01-03T13:01:06.075Z,40.6
2023-01-03T13:02:10.400Z,40.6
2023-01-03T13:03:06.673Z,40.4
2023-01-03T13:04:06.056Z,39.9
2023-01-03T13:05:10.297Z,39.9
2023-01-03T13:06:00.442Z,39.9
2023-01-03T13:07:01.527Z,40.1
2023-01-03T13:08:05.032Z,40.1
2023-01-03T13:09:07.099Z,39.6
2023-01-03T13:10:04.082Z,39.3
2023-01-03T13:11:02.922Z,39.4
2023-01-03T13:12:04.551Z,39.3
2023-01-03T13:13:01.168Z,39.4
2023-01-03T13:14:05.486Z,39.0
2023-01-03T13:15:01.534Z,39.4
2023-01-03T13:16:10.394Z,39.7
2023-01-03T13:17:04.152Z,39.8
2023-01-03T13:18:10.301Z,39.5
2023-01-03T13:19:10.270Z,39.5
2023-01-03T13:20:10.309Z,39.9
2023-01-03T13:21:00.783Z,39.9
2023-01-03T13:22:02.783Z,39.5
2023-01-03T13:23:10.331Z,39.8
2023-01-03T13:24:00.489Z,39.4
2023-01-03T13:25:10.345Z,39.4
2023-01-03T13:26:03.770Z,39.6
2023-01-03T13:27:10.305Z,39.9
2023-01-03T13:28:10.332Z,40.5
2023-01-03T13:29:10.333Z,40.5
2023-01-03T13:30:00.457Z,40.9
2023-01-03T13:31:10.702Z,40.6
2023-01-03T13:32:01.453Z,40.4
2023-01-03T13:33:10.320Z,40.0
2023-01-03T13:34:10.329Z,39.7
2023-01-03T13:35:00.494Z,39.9
2023-01-03T13:36:00.451Z,39.9